Time;durP1;ratioP1;P1;durP2;ratioP2;P2;SDS_P1;SDS_P2;PMS_P1;PMS_P2;Temp;Humidity;BMP_temperature;BMP_pressure;BME280_temperature;BME280_humidity;BME280_pressure;Samples;Min_cycle;Max_cycle;Signal;HPM_P1;HPM_P2
2021/11/16 00:01:22;;;;;;;95.32;44.60;;;8.40;99.90;;;8.91;79.55;102482.78;5069687;28;20474;-70
2021/11/16 00:03:51;;;;;;;101.80;43.38;;;8.60;99.90;;;8.88;79.01;102478.31;5054066;28;20041;-69
2021/11/16 00:06:20;;;;;;;101.15;43.38;;;8.70;99.90;;;8.78;79.17;102473.66;5053966;28;20152;-68
2021/11/16 00:08:50;;;;;;;105.93;46.80;;;8.60;99.90;;;8.95;78.77;102474.13;5053914;28;20072;-69
2021/11/16 00:11:19;;;;;;;114.45;44.85;;;8.70;99.90;;;8.47;78.52;102431.41;5052694;28;20070;-69
2021/11/16 00:13:49;;;;;;;113.72;45.42;;;8.60;99.90;;;8.78;78.98;102468.38;5054072;28;20047;-68
2021/11/16 00:16:18;;;;;;;111.43;45.17;;;8.60;99.90;;;8.90;78.63;102457.28;5053873;28;20045;-69
2021/11/16 00:18:47;;;;;;;104.35;45.30;;;8.70;99.90;;;8.38;78.22;102353.78;5054255;28;20041;-68
2021/11/16 00:21:18;;;;;;;108.82;45.55;;;8.80;99.90;;;9.15;77.76;102454.44;5052690;28;20051;-70
2021/11/16 00:23:53;;;;;;;110.78;45.55;;;9.00;99.90;;;9.23;77.84;102452.91;5053912;28;20425;-70
2021/11/16 00:26:22;;;;;;;111.22;46.88;;;9.10;99.90;;;9.28;77.20;102445.97;5053630;28;20414;-69
2021/11/16 00:28:51;;;;;;;110.53;47.72;;;9.20;99.90;;;9.30;76.75;102441.63;5053516;28;20120;-69
2021/11/16 00:31:20;;;;;;;104.97;44.77;;;9.20;99.90;;;8.89;76.77;102414.16;5053853;28;20059;-69
2021/11/16 00:33:49;;;;;;;109.15;45.88;;;9.10;99.90;;;9.11;77.07;102447.28;5053670;28;20648;-69
2021/11/16 00:36:18;;;;;;;103.97;45.47;;;9.00;99.90;;;8.84;78.32;102446.53;5053392;28;20040;-69
2021/11/16 00:38:48;;;;;;;114.75;47.25;;;8.80;99.90;;;8.15;79.71;102405.78;5053628;28;20054;-69
2021/11/16 00:41:17;;;;;;;106.18;44.70;;;8.30;99.90;;;7.92;81.10;102399.84;5053297;28;20045;-69
2021/11/16 00:43:49;;;;;;;107.55;45.88;;;8.00;99.90;;;8.10;82.57;102423.22;5053220;28;20560;-69
2021/11/16 00:46:18;;;;;;;111.22;47.38;;;7.90;99.90;;;8.23;82.23;102438.53;5053260;28;20526;-70
2021/11/16 00:48:47;;;;;;;100.15;45.65;;;8.00;99.90;;;8.03;82.28;102427.41;5053206;28;20080;-69
2021/11/16 00:51:15;;;;;;;103.35;44.60;;;7.90;99.90;;;7.60;82.94;102384.78;5053178;28;20041;-69
2021/11/16 00:53:44;;;;;;;103.70;44.42;;;7.70;99.90;;;7.84;83.99;102422.41;5053197;28;20120;-70
2021/11/16 00:56:14;;;;;;;106.05;43.20;;;7.60;99.90;;;7.26;84.93;102372.25;5053110;28;20564;-69
2021/11/16 00:58:45;;;;;;;103.05;44.88;;;7.50;99.90;;;7.33;85.68;102412.84;5053140;28;20047;-69
2021/11/16 01:01:13;;;;;;;110.30;45.60;;;7.30;99.90;;;7.75;85.54;102439.66;5053589;28;20083;-69
2021/11/16 01:03:42;;;;;;;108.55;44.60;;;7.50;99.90;;;8.04;85.01;102447.66;5052995;28;20037;-70
2021/11/16 01:06:10;;;;;;;109.20;45.00;;;7.70;99.90;;;7.85;84.04;102404.88;5052903;28;20494;-69
2021/11/16 01:08:39;;;;;;;107.38;45.60;;;7.90;99.90;;;7.83;84.31;102446.97;5053190;28;20091;-69
2021/11/16 01:11:08;;;;;;;109.38;44.75;;;7.70;99.90;;;7.49;84.57;102438.78;5051943;28;20106;-69
2021/11/16 01:13:37;;;;;;;102.53;43.42;;;7.50;99.90;;;7.87;84.85;102454.13;5068657;28;20073;-70
2021/11/16 01:16:06;;;;;;;107.90;42.97;;;7.60;99.90;;;8.04;84.13;102446.75;5052939;28;20048;-69
2021/11/16 01:18:35;;;;;;;104.63;42.95;;;7.80;99.90;;;7.60;84.51;102429.53;5053219;28;20041;-69
2021/11/16 01:21:04;;;;;;;95.80;42.47;;;7.60;99.90;;;7.82;84.73;102446.94;5051794;28;20041;-70
2021/11/16 01:23:33;;;;;;;102.90;45.22;;;7.60;99.90;;;7.63;84.48;102453.31;5053350;28;20045;-69
2021/11/16 01:26:02;;;;;;;103.32;42.95;;;7.50;99.90;;;7.39;85.15;102447.25;5057211;28;20098;-69
2021/11/16 01:28:31;;;;;;;102.60;43.13;;;7.30;99.90;;;7.35;85.36;102450.63;5057129;28;20449;-69
2021/11/16 01:31:03;;;;;;;96.88;43.03;;;7.20;99.90;;;7.41;86.23;102435.03;5056883;28;20037;-69
2021/11/16 01:33:41;;;;;;;101.97;43.75;;;7.20;99.90;;;7.42;86.43;102435.91;5057061;28;20128;-69
2021/11/16 01:36:12;;;;;;;105.38;41.67;;;7.20;99.90;;;5.85;86.53;102142.19;5057056;28;20045;-69
2021/11/16 01:38:42;;;;;;;105.30;43.22;;;7.30;99.90;;;7.35;86.57;102439.19;5057122;28;20087;-69
2021/11/16 01:41:12;;;;;;;100.72;41.25;;;7.20;99.90;;;7.09;87.18;102422.50;5072511;28;20502;-69
2021/11/16 01:43:41;;;;;;;101.63;42.15;;;7.10;99.90;;;6.86;87.55;102408.56;5056576;28;20494;-69
2021/11/16 01:46:15;;;;;;;101.85;43.88;;;7.00;99.90;;;6.95;87.64;102418.53;5056606;28;20069;-69
2021/11/16 01:48:49;;;;;;;102.78;43.10;;;6.90;99.90;;;7.06;87.61;102427.69;5057380;28;20037;-69
2021/11/16 01:51:20;;;;;;;103.95;45.28;;;6.90;99.90;;;7.11;87.80;102421.72;5056536;28;20084;-69
2021/11/16 01:53:48;;;;;;;;;;;7.00;99.90;;;7.12;87.77;102420.88;5057007;28;20048;-70
2021/11/16 01:56:18;;;;;;;101.05;43.50;;;6.90;99.90;;;7.23;87.73;102439.69;5057003;28;19956;-69
2021/11/16 01:58:47;;;;;;;103.70;44.28;;;7.10;99.90;;;7.24;87.12;102400.25;5056682;28;20486;-69
2021/11/16 02:01:17;;;;;;;101.25;44.85;;;7.10;99.90;;;7.42;86.77;102405.22;5056654;28;20060;-69
2021/11/16 02:03:45;;;;;;;98.90;45.38;;;7.30;99.90;;;7.71;86.07;102414.97;5056724;28;20490;-70
2021/11/16 02:06:21;;;;;;;106.65;47.13;;;7.50;99.90;;;7.50;85.34;102387.03;5056600;28;20072;-69
2021/11/16 02:08:51;;;;;;;102.22;46.53;;;7.50;99.90;;;7.35;85.29;102404.97;5056473;28;20414;-70
2021/11/16 02:11:22;;;;;;;104.10;46.88;;;7.30;99.90;;;7.28;85.81;102411.75;5056376;28;20041;-70
2021/11/16 02:13:51;;;;;;;;;;;7.30;99.90;;;7.50;86.24;102405.47;5056962;28;20398;-70
2021/11/16 02:16:21;;;;;;;109.82;46.65;;;7.30;99.90;;;7.65;85.23;102408.59;5056336;28;19930;-70
2021/11/16 02:18:50;;;;;;;99.45;44.92;;;7.50;99.90;;;7.36;84.55;102405.03;5055941;28;20044;-69
2021/11/16 02:21:20;;;;;;;98.85;45.70;;;7.30;99.90;;;7.40;84.70;102392.84;5056023;28;20557;-69
2021/11/16 02:23:48;;;;;;;102.10;44.55;;;7.30;99.90;;;7.12;84.97;102381.41;5056792;28;20055;-68
2021/11/16 02:26:17;;;;;;;96.53;43.90;;;7.10;99.90;;;7.42;85.16;102391.16;5055862;28;20123;-69
2021/11/16 02:28:46;;;;;;;104.53;46.72;;;7.20;99.90;;;7.68;84.29;102391.19;5055887;28;20044;-69
2021/11/16 02:31:17;;;;;;;96.82;45.40;;;7.40;99.90;;;7.42;84.14;102388.53;5056350;28;20075;-68
2021/11/16 02:33:46;;;;;;;95.22;43.78;;;7.30;99.90;;;7.22;84.74;102375.63;5055824;28;20060;-69
2021/11/16 02:36:15;;;;;;;89.60;42.63;;;7.10;99.90;;;7.07;85.19;102368.94;5056291;28;20044;-69
2021/11/16 02:38:45;;;;;;;96.97;43.55;;;7.00;99.90;;;7.30;85.48;102384.66;5055693;28;20502;-68
2021/11/16 02:41:15;;;;;;;96.53;45.25;;;7.10;99.90;;;7.36;85.77;102373.44;5055850;28;20052;-68
2021/11/16 02:43:44;;;;;;;100.90;45.15;;;7.10;99.90;;;7.32;85.06;102355.75;5055563;28;20052;-68
2021/11/16 02:46:13;;;;;;;96.88;42.83;;;7.20;99.90;;;7.09;85.20;102356.75;5055553;28;20064;-68
2021/11/16 02:48:41;;;;;;;81.70;40.20;;;7.20;99.90;;;7.20;84.96;102382.56;5055763;28;20045;-68
2021/11/16 02:51:12;;;;;;;85.00;39.08;;;7.00;99.90;;;7.28;84.45;102382.81;5055657;28;20044;-68
2021/11/16 02:53:42;;;;;;;82.03;39.63;;;7.00;99.90;;;7.62;83.71;102383.09;5055692;28;20498;-69
2021/11/16 02:56:14;;;;;;;80.97;39.13;;;7.30;99.90;;;7.58;82.49;102351.34;5055996;28;20307;-68
2021/11/16 02:58:42;;;;;;;82.32;38.63;;;7.50;99.90;;;7.62;82.10;102385.72;5055342;28;20124;-68
2021/11/16 03:01:16;;;;;;;80.93;37.42;;;7.50;99.90;;;7.50;82.63;102397.56;5055771;28;20490;-68
2021/11/16 03:03:46;;;;;;;76.90;36.05;;;7.30;99.90;;;7.78;81.59;102387.09;5054337;28;20053;-69
2021/11/16 03:06:15;;;;;;;78.07;36.70;;;7.50;99.90;;;7.59;81.63;102390.00;5055107;28;20045;-69
2021/11/16 03:08:44;;;;;;;76.57;36.28;;;7.40;99.90;;;7.90;81.45;102396.25;5055129;28;20040;-69
2021/11/16 03:11:15;;;;;;;73.47;35.42;;;7.60;99.90;;;8.05;80.67;102394.06;5054987;28;20098;-69
2021/11/16 03:13:45;;;;;;;71.90;35.30;;;7.70;99.90;;;8.23;80.22;102392.88;5055074;28;20037;-69
2021/11/16 03:16:17;;;;;;;73.20;35.28;;;8.00;99.90;;;8.36;79.63;102389.78;5054990;28;20036;-69
2021/11/16 03:18:46;;;;;;;76.93;35.58;;;8.10;99.90;;;8.21;78.75;102392.78;5054975;28;20037;-69
2021/11/16 03:21:16;;;;;;;75.30;36.45;;;8.10;99.90;;;8.29;79.47;102390.41;5055190;28;20049;-69
2021/11/16 03:23:46;;;;;;;73.32;36.15;;;8.00;99.90;;;8.51;78.75;102385.81;5055128;28;20032;-69
2021/11/16 03:26:17;;;;;;;69.47;34.50;;;8.20;99.90;;;8.57;78.46;102387.72;5055226;28;20402;-68
2021/11/16 03:28:48;;;;;;;;;;;8.30;99.90;;;8.48;78.58;102383.09;5054379;28;20511;-69
2021/11/16 03:31:21;;;;;;;71.97;36.20;;;8.30;99.90;;;8.23;79.55;102385.81;5054769;28;20358;-69
2021/11/16 03:33:50;;;;;;;78.63;36.40;;;8.10;99.90;;;8.08;79.72;102362.56;5053674;28;20540;-69
2021/11/16 03:36:21;;;;;;;70.38;32.80;;;8.00;99.90;;;8.14;79.52;102382.94;5054477;28;20041;-68
2021/11/16 03:38:53;;;;;;;65.93;34.15;;;8.00;99.90;;;8.00;80.58;102390.44;5054616;28;20398;-68
2021/11/16 03:41:23;;;;;;;62.88;31.20;;;7.80;99.90;;;7.97;79.27;102384.19;5054535;28;20083;-68
2021/11/16 03:43:54;;;;;;;63.10;32.15;;;7.80;99.90;;;8.33;78.41;102392.28;5054750;28;20544;-68
2021/11/16 03:46:24;;;;;;;66.10;33.10;;;8.00;99.90;;;8.14;77.90;102386.47;5054407;28;20048;-68
2021/11/16 03:48:53;;;;;;;63.42;32.97;;;8.10;99.90;;;7.94;78.25;102392.88;5054949;28;20045;-69
2021/11/16 03:51:22;;;;;;;63.63;31.58;;;7.80;99.90;;;8.31;78.16;102392.25;5054555;28;20068;-69
2021/11/16 03:53:51;;;;;;;64.82;32.20;;;8.00;99.90;;;8.53;77.82;102399.03;5054224;28;20089;-68
2021/11/16 03:56:20;;;;;;;63.95;31.92;;;8.20;99.90;;;8.67;77.11;102405.59;5054436;28;20044;-68
2021/11/16 03:58:50;;;;;;;62.72;30.55;;;8.40;99.90;;;8.50;76.96;102354.09;5054149;28;20095;-68
2021/11/16 04:01:19;;;;;;;65.32;32.15;;;8.50;99.90;;;8.56;76.39;102344.63;5054367;28;20510;-68
2021/11/16 04:03:48;;;;;;;66.35;32.53;;;8.70;99.90;;;8.97;75.46;102409.97;5054589;28;20549;-68
2021/11/16 04:06:17;;;;;;;62.50;32.35;;;8.80;99.90;;;8.82;75.33;102370.00;5054251;28;20049;-68
2021/11/16 04:08:46;;;;;;;63.60;31.95;;;8.80;99.90;;;9.14;75.27;102414.81;5053823;28;20037;-68
2021/11/16 04:11:14;;;;;;;63.83;32.58;;;8.90;99.90;;;9.17;75.17;102405.22;5053932;28;20468;-68
2021/11/16 04:13:44;;;;;;;66.30;32.65;;;9.00;99.90;;;9.01;74.61;102397.75;5054440;28;20094;-68
2021/11/16 04:16:14;;;;;;;62.50;30.45;;;9.00;99.90;;;8.91;75.12;102370.22;5053955;28;20072;-68
2021/11/16 04:18:43;;;;;;;62.67;31.85;;;8.90;99.90;;;9.20;75.01;102402.66;5054144;28;20482;-68
2021/11/16 04:21:12;;;;;;;62.40;31.90;;;9.00;99.90;;;9.13;74.75;102386.63;5053896;28;20043;-69
2021/11/16 04:23:41;;;;;;;58.00;31.20;;;9.00;99.90;;;9.25;74.73;102387.84;5053706;28;20048;-68
2021/11/16 04:26:10;;;;;;;60.95;30.83;;;9.00;99.90;;;9.35;74.87;102392.47;5052349;28;20084;-69
2021/11/16 04:28:38;;;;;;;60.25;31.58;;;9.20;99.90;;;9.43;74.72;102393.56;5053576;28;20438;-68
2021/11/16 04:31:07;;;;;;;66.65;32.85;;;9.20;99.90;;;9.28;74.39;102372.06;5054426;28;20094;-69
2021/11/16 04:33:38;;;;;;;67.15;34.25;;;9.20;99.90;;;9.40;74.05;102387.31;5053534;28;20554;-68
2021/11/16 04:36:06;;;;;;;62.85;33.30;;;9.30;99.90;;;9.43;73.58;102393.56;5053699;28;20478;-69
2021/11/16 04:38:35;;;;;;;64.70;33.20;;;9.30;99.90;;;9.42;73.92;102396.16;5053454;28;20049;-68
2021/11/16 04:41:04;;;;;;;66.55;34.38;;;9.30;99.90;;;9.29;73.86;102371.19;5053397;28;20049;-69
2021/11/16 04:43:32;;;;;;;60.88;33.03;;;9.20;99.90;;;9.42;73.82;102391.78;5053169;28;20120;-68
2021/11/16 04:46:05;;;;;;;74.53;33.92;;;9.20;99.90;;;9.39;74.03;102386.41;5053627;28;20091;-68
2021/11/16 04:48:48;;;;;;;67.28;34.13;;;9.20;99.90;;;9.13;73.93;102360.22;5053537;28;20394;-68
2021/11/16 04:54:21;;;;;;;70.50;34.60;;;9.20;99.90;;;9.43;73.98;102395.28;5053278;28;20556;-69
2021/11/16 04:59:46;;;;;;;69.82;34.17;;;9.30;99.90;;;9.32;73.89;102368.63;5052313;28;20037;-68
2021/11/16 05:05:08;;;;;;;73.70;35.92;;;9.30;99.90;;;9.41;73.75;102371.50;5053083;28;20095;-69
2021/11/16 05:07:39;;;;;;;69.47;35.65;;;9.30;99.90;;;9.46;74.15;102377.81;5053284;28;20051;-67
2021/11/16 05:10:09;;;;;;;67.05;35.80;;;9.20;99.90;;;9.01;74.26;102376.63;5068766;28;20045;-70
2021/11/16 05:12:38;;;;;;;71.43;36.10;;;8.90;99.90;;;8.84;74.95;102380.59;5053294;28;20041;-70
2021/11/16 05:15:13;;;;;;;77.43;37.33;;;8.70;99.90;;;8.61;76.25;102379.97;5053497;28;20287;-69
2021/11/16 05:17:41;;;;;;;82.03;38.83;;;8.40;99.90;;;8.30;77.63;102373.75;5053212;28;20049;-68
2021/11/16 05:20:12;;;;;;;78.80;36.55;;;8.10;99.90;;;7.92;78.21;102372.59;5052882;28;20041;-69
2021/11/16 05:22:42;;;;;;;78.20;37.33;;;7.80;99.90;;;7.93;79.09;102366.50;5052921;28;20052;-68
2021/11/16 05:25:11;;;;;;;76.93;37.63;;;7.70;99.90;;;8.12;79.65;102361.81;5053376;28;20135;-68
2021/11/16 05:27:41;;;;;;;78.40;38.15;;;7.80;99.90;;;7.24;79.36;102151.97;5052755;28;20107;-68
2021/11/16 05:30:12;;;;;;;79.38;38.45;;;8.10;99.90;;;8.38;78.39;102361.72;5053361;28;20056;-68
2021/11/16 05:32:43;;;;;;;77.82;37.78;;;8.10;99.90;;;8.13;78.61;102368.84;5052837;28;20099;-68
2021/11/16 05:35:14;;;;;;;89.60;39.45;;;8.00;99.90;;;7.90;79.77;102369.00;5052861;28;20079;-68
2021/11/16 05:37:43;;;;;;;83.57;40.13;;;7.80;99.90;;;8.21;79.59;102375.25;5053089;28;20053;-68
2021/11/16 05:40:12;;;;;;;78.07;38.60;;;7.90;99.90;;;8.50;78.97;102375.22;5052712;28;20557;-68
2021/11/16 05:42:41;;;;;;;81.30;38.53;;;8.20;99.90;;;8.67;78.64;102373.97;5052959;28;20056;-69
2021/11/16 05:45:10;;;;;;;85.38;41.55;;;8.40;99.90;;;8.07;78.06;102250.09;5052919;28;20049;-69
2021/11/16 05:47:41;;;;;;;85.60;41.28;;;8.50;99.90;;;8.68;78.03;102346.72;5051715;28;20049;-68
2021/11/16 05:50:13;;;;;;;82.53;40.85;;;8.60;99.90;;;8.94;77.40;102370.28;5053200;28;20070;-68
2021/11/16 05:52:42;;;;;;;87.53;41.00;;;8.70;99.90;;;9.03;77.09;102370.56;5052741;28;20076;-68
2021/11/16 05:55:11;;;;;;;82.07;38.92;;;8.80;99.90;;;9.10;77.00;102366.31;5053133;28;20049;-68
2021/11/16 05:57:40;;;;;;;84.95;41.78;;;8.80;99.90;;;9.18;76.56;102369.13;5052700;28;20037;-68
2021/11/16 06:00:10;;;;;;;81.53;41.53;;;9.00;99.90;;;9.24;76.20;102367.56;5052805;28;20083;-68
2021/11/16 06:02:39;;;;;;;80.40;38.50;;;9.00;99.90;;;9.16;75.64;102370.84;5052595;28;20041;-68
2021/11/16 06:05:08;;;;;;;81.70;40.30;;;9.00;99.90;;;8.83;75.89;102353.28;5052499;28;20565;-66
2021/11/16 06:07:38;;;;;;;79.13;40.10;;;8.80;99.90;;;8.66;77.03;102370.41;5052364;28;20072;-66
2021/11/16 06:10:07;;;;;;;82.88;40.63;;;8.50;99.90;;;8.26;77.81;102362.25;5054354;28;20098;-66
2021/11/16 06:12:37;;;;;;;82.60;40.22;;;8.10;99.90;;;8.27;79.26;102371.03;5056507;28;20045;-66
2021/11/16 06:15:10;;;;;;;85.90;41.75;;;8.00;99.90;;;8.36;78.67;102361.66;5056694;28;20041;-66
2021/11/16 06:17:43;;;;;;;87.88;41.05;;;8.00;99.90;;;8.00;79.37;102350.00;5056125;28;20041;-66
2021/11/16 06:20:13;;;;;;;86.53;42.50;;;7.80;99.90;;;7.91;79.69;102349.75;5056107;28;20041;-66
2021/11/16 06:22:43;;;;;;;81.72;40.53;;;7.60;99.90;;;7.93;80.01;102340.13;5071683;28;20490;-65
2021/11/16 06:25:11;;;;;;;95.17;42.83;;;7.60;99.90;;;7.82;80.22;102342.44;5056043;28;20456;-68
2021/11/16 06:27:40;;;;;;;84.03;40.58;;;7.60;99.90;;;7.73;81.77;102343.91;5055787;28;20048;-67
2021/11/16 06:30:10;;;;;;;90.88;42.35;;;7.50;99.90;;;7.64;81.89;102347.16;5055829;28;20049;-67
2021/11/16 06:32:39;;;;;;;96.22;44.83;;;7.40;99.90;;;7.66;81.86;102340.22;5055845;28;20044;-67
2021/11/16 06:35:15;;;;;;;91.97;43.55;;;7.40;99.90;;;7.53;82.64;102334.50;5056269;28;20037;-67
2021/11/16 06:37:44;;;;;;;94.78;44.55;;;7.30;99.90;;;7.32;83.50;102342.59;5055794;28;20099;-67
2021/11/16 06:40:13;;;;;;;95.38;42.92;;;7.20;99.90;;;7.17;84.02;102343.00;5055878;28;20041;-67
2021/11/16 06:42:42;;;;;;;91.05;43.97;;;7.00;99.90;;;7.11;85.11;102337.53;5054528;28;20137;-67
2021/11/16 06:45:11;;;;;;;94.72;41.97;;;6.90;99.90;;;7.35;84.34;102340.09;5055735;28;20091;-67
2021/11/16 06:47:40;;;;;;;104.50;44.83;;;7.10;99.90;;;7.29;83.92;102345.16;5054617;28;20486;-67
2021/11/16 06:50:10;;;;;;;92.38;44.85;;;7.10;99.90;;;7.20;84.16;102345.72;5055397;28;20486;-67
2021/11/16 06:52:38;;;;;;;98.03;44.47;;;7.00;99.90;;;7.37;83.88;102338.41;5055423;28;20095;-67
2021/11/16 06:55:10;;;;;;;105.85;44.95;;;7.10;99.90;;;7.32;84.12;102335.59;5055629;28;20065;-67
2021/11/16 06:57:39;;;;;;;90.32;43.25;;;7.20;99.90;;;7.27;84.87;102326.69;5055564;28;20533;-67
2021/11/16 07:00:10;;;;;;;93.82;41.50;;;7.10;99.90;;;7.27;83.96;102333.66;5055297;28;20072;-67
2021/11/16 07:02:40;;;;;;;91.93;43.30;;;7.10;99.90;;;7.63;83.75;102337.47;5053927;28;20041;-68
2021/11/16 07:05:10;;;;;;;92.95;44.63;;;7.40;99.90;;;7.78;83.20;102337.91;5055118;28;20554;-68
2021/11/16 07:07:44;;;;;;;98.72;44.58;;;7.50;99.90;;;7.71;82.61;102314.88;5055202;28;20040;-67
2021/11/16 07:10:25;;;;;;;90.57;42.80;;;7.60;99.90;;;7.82;82.67;102346.84;5055053;28;20037;-67
2021/11/16 07:12:53;;;;;;;90.38;40.83;;;7.60;99.90;;;7.32;82.77;102324.16;5055089;28;20502;-67
2021/11/16 07:15:22;;;;;;;98.47;43.05;;;7.30;99.90;;;7.19;83.28;102332.53;5055547;28;20041;-67
2021/11/16 07:17:50;;;;;;;93.53;42.88;;;7.10;99.90;;;7.16;83.48;102345.59;5054988;28;20106;-67
2021/11/16 07:20:19;;;;;;;98.28;43.30;;;7.00;99.90;;;7.02;83.92;102346.88;5055395;28;20068;-67
2021/11/16 07:22:47;;;;;;;94.05;43.30;;;6.90;99.90;;;6.88;84.58;102348.13;5054143;28;20045;-68
2021/11/16 07:25:17;;;;;;;96.40;44.15;;;6.70;99.90;;;6.93;85.35;102350.06;5053825;28;20384;-68
2021/11/16 07:27:48;;;;;;;95.90;44.67;;;6.70;99.90;;;7.02;84.68;102339.88;5054730;28;20380;-68
2021/11/16 07:30:22;;;;;;;95.65;44.67;;;6.80;99.90;;;6.94;85.35;102340.44;5054989;28;20296;-68
2021/11/16 07:32:54;;;;;;;98.85;45.15;;;6.80;99.90;;;6.93;85.31;102338.69;5054770;28;20044;-68
2021/11/16 07:35:27;;;;;;;102.63;45.95;;;6.70;99.90;;;6.97;85.67;102337.91;5054598;28;20106;-64
2021/11/16 07:37:59;;;;;;;101.00;45.10;;;6.80;99.90;;;6.77;85.79;102339.88;5054563;28;20045;-67
2021/11/16 07:40:30;;;;;;;109.28;44.58;;;6.70;99.90;;;6.66;85.91;102322.81;5053789;28;20522;-67
2021/11/16 07:43:01;;;;;;;96.85;44.00;;;6.60;99.90;;;6.79;85.86;102332.94;5053415;28;20053;-69
2021/11/16 07:45:35;;;;;;;99.32;45.42;;;6.70;99.90;;;6.93;86.05;102336.03;5053325;28;20056;-66
2021/11/16 07:48:06;;;;;;;100.45;44.92;;;6.70;99.90;;;6.53;85.34;102259.25;5054391;28;20064;-66
2021/11/16 07:50:46;;;;;;;100.53;44.40;;;6.80;99.90;;;7.26;85.36;102347.66;5054580;28;20048;-67
2021/11/16 07:53:21;;;;;;;92.25;43.80;;;7.00;99.90;;;7.56;84.66;102350.38;5054677;28;20045;-65
2021/11/16 07:56:09;;;;;;;101.55;43.65;;;7.20;99.90;;;7.53;83.28;102355.56;5054313;28;20045;-64
2021/11/16 07:58:41;;;;;;;97.70;44.33;;;7.30;99.90;;;7.47;83.17;102344.84;5054768;28;20051;-64
2021/11/16 08:01:16;;;;;;;95.88;44.05;;;7.30;99.90;;;7.53;83.28;102353.81;5054519;28;20041;-65
2021/11/16 08:03:49;;;;;;;94.18;43.28;;;7.30;99.90;;;7.56;83.10;102355.66;5054223;28;20072;-64
2021/11/16 08:06:31;;;;;;;94.45;41.70;;;7.30;99.90;;;7.34;83.21;102350.56;5054281;28;20053;-65
2021/11/16 08:09:15;;;;;;;100.20;42.97;;;7.20;99.90;;;6.56;83.75;102228.75;5054455;28;20090;-67
2021/11/16 08:11:49;;;;;;;88.35;40.58;;;7.10;99.90;;;7.44;84.19;102348.25;5052964;28;20049;-66
2021/11/16 08:14:18;;;;;;;92.47;43.45;;;7.20;99.90;;;7.52;82.56;102340.59;5054200;28;20041;-65
2021/11/16 08:16:55;;;;;;;98.15;44.78;;;7.30;99.90;;;7.64;82.78;102352.44;5053758;28;20141;-67
2021/11/16 08:19:27;;;;;;;96.07;43.88;;;7.40;99.90;;;7.73;82.88;102338.63;5053804;28;20041;-66
2021/11/16 08:21:57;;;;;;;95.03;43.33;;;7.60;99.90;;;7.99;82.28;102346.47;5054072;28;20045;-64
2021/11/16 08:24:29;;;;;;;84.87;40.87;;;7.70;99.90;;;8.04;81.69;102338.72;5054312;28;20045;-66
2021/11/16 08:27:01;;;;;;;84.38;40.03;;;7.70;99.90;;;7.86;80.94;102338.16;5053955;28;20283;-68
2021/11/16 08:29:32;;;;;;;81.93;40.33;;;7.70;99.90;;;7.60;81.20;102326.84;5053960;28;20041;-68
2021/11/16 08:32:08;;;;;;;86.63;39.95;;;7.50;99.90;;;7.58;81.69;102322.38;5053603;28;20041;-68
2021/11/16 08:34:40;;;;;;;90.63;39.30;;;7.50;99.90;;;7.81;81.48;102340.66;5053533;28;20049;-68
2021/11/16 08:37:12;;;;;;;85.25;39.58;;;7.50;99.90;;;7.91;81.73;102344.47;5053726;28;20398;-68
2021/11/16 08:39:45;;;;;;;84.63;39.80;;;7.60;99.90;;;8.14;81.27;102344.31;5053662;28;20045;-68
2021/11/16 08:42:22;;;;;;;85.45;42.25;;;7.80;99.90;;;8.20;80.39;102344.47;5052416;28;20049;-69
2021/11/16 08:44:54;;;;;;;91.38;43.85;;;8.00;99.90;;;8.39;80.29;102339.75;5053154;28;20049;-69
2021/11/16 08:47:29;;;;;;;87.53;42.55;;;8.10;99.90;;;8.38;79.87;102349.38;5053375;28;20076;-69
2021/11/16 08:49:58;;;;;;;88.28;42.78;;;8.20;99.90;;;8.37;79.53;102346.72;5053348;28;20111;-69
2021/11/16 08:52:28;;;;;;;94.07;43.47;;;8.20;99.90;;;8.40;79.55;102331.00;5053101;28;20128;-68
2021/11/16 08:55:01;;;;;;;84.03;40.80;;;8.20;99.90;;;8.53;79.27;102341.03;5053241;28;20041;-67
2021/11/16 08:57:34;;;;;;;92.55;42.25;;;8.40;99.90;;;8.57;78.68;102335.00;5053184;28;20049;-68
2021/11/16 09:00:18;;;;;;;86.10;41.40;;;8.40;99.90;;;8.40;79.03;102329.25;5053674;28;20102;-65
2021/11/16 09:02:47;;;;;;;86.43;41.42;;;8.30;99.90;;;8.47;79.27;102328.56;5053395;28;20045;-67
2021/11/16 09:05:19;;;;;;;84.57;41.45;;;8.30;99.90;;;7.32;78.47;102134.69;5052995;28;20037;-68
2021/11/16 09:07:50;;;;;;;87.22;42.03;;;8.30;99.90;;;8.33;79.01;102329.94;5052038;28;20083;-67
2021/11/16 09:10:20;;;;;;;87.07;41.55;;;8.20;99.90;;;8.34;79.27;102329.09;5052999;28;20048;-67
2021/11/16 09:12:54;;;;;;;83.13;40.17;;;8.20;99.90;;;8.32;79.56;102328.16;5053347;28;20470;-67
2021/11/16 09:15:34;;;;;;;89.28;41.03;;;8.20;99.90;;;7.62;80.92;102316.34;5053146;28;20059;-67
2021/11/16 09:18:15;;;;;;;101.45;42.92;;;7.60;99.90;;;7.35;82.04;102318.13;5052573;28;20049;-67
2021/11/16 09:20:47;;;;;;;90.55;41.92;;;7.30;99.90;;;7.58;82.55;102317.09;5052743;28;20094;-67
2021/11/16 09:23:24;;;;;;;89.80;42.60;;;7.40;99.90;;;7.38;83.13;102313.84;5052752;28;20107;-67
2021/11/16 09:25:55;;;;;;;94.72;43.10;;;7.20;99.90;;;7.37;83.58;102314.72;5052711;28;20045;-67
2021/11/16 09:28:34;;;;;;;92.82;41.00;;;7.20;99.90;;;7.42;83.42;102321.00;5052754;28;20567;-67
2021/11/16 09:31:17;;;;;;;87.32;41.20;;;7.20;99.90;;;7.77;83.90;102322.06;5052885;28;20045;-67
2021/11/16 09:33:47;;;;;;;92.88;40.92;;;7.40;99.90;;;8.06;82.55;102326.47;5053078;28;20033;-67
2021/11/16 09:36:26;;;;;;;83.57;40.23;;;7.70;99.90;;;8.23;81.95;102326.97;5052787;28;20456;-67
2021/11/16 09:38:58;;;;;;;84.63;40.28;;;8.00;99.90;;;7.85;81.58;102316.22;5052804;28;20041;-67
2021/11/16 09:41:38;;;;;;;85.63;39.17;;;7.80;99.90;;;7.56;82.40;102324.97;5053072;28;20483;-67
2021/11/16 09:44:13;;;;;;;74.40;34.35;;;7.50;99.90;;;7.44;81.83;102318.41;5052854;28;20057;-67
2021/11/16 09:46:50;;;;;;;73.50;34.33;;;7.30;99.90;;;7.70;82.16;102315.75;5056682;28;20037;-68
2021/11/16 09:49:32;;;;;;;67.80;33.42;;;7.40;99.90;;;7.86;82.23;102306.53;5056723;28;20091;-68
2021/11/16 09:52:06;;;;;;;75.72;33.40;;;7.60;99.90;;;7.92;81.66;102307.63;5056639;28;20052;-67
2021/11/16 09:54:51;;;;;;;70.65;32.38;;;7.60;99.90;;;7.46;82.38;102307.09;5056551;28;20048;-67
2021/11/16 09:57:24;;;;;;;71.13;32.92;;;7.40;99.90;;;6.72;82.32;102190.69;5056848;28;20052;-67
2021/11/16 10:00:06;;;;;;;77.72;32.63;;;7.20;99.90;;;7.32;83.13;102304.03;5055437;28;20110;-68
2021/11/16 10:02:36;;;;;;;76.05;34.95;;;7.20;99.90;;;7.10;84.00;102275.22;5056673;28;20037;-67
2021/11/16 10:05:08;;;;;;;63.90;32.57;;;7.10;99.90;;;7.10;83.21;102292.78;5056367;28;20049;-67
2021/11/16 10:07:37;;;;;;;68.05;31.33;;;7.00;99.90;;;7.30;82.86;102302.19;5056578;28;20052;-67
2021/11/16 10:10:06;;;;;;;68.13;32.67;;;7.00;99.90;;;7.60;82.00;102300.50;5056389;28;20489;-67
2021/11/16 10:12:41;;;;;;;72.00;32.25;;;7.30;99.90;;;7.81;82.01;102301.16;5056125;28;20414;-67
2021/11/16 10:15:14;;;;;;;74.22;33.97;;;7.50;99.90;;;8.02;81.63;102304.41;5056390;28;20045;-67
2021/11/16 10:17:45;;;;;;;69.07;34.70;;;7.70;99.90;;;8.00;80.56;102287.66;5056348;28;20067;-67
2021/11/16 10:20:15;;;;;;;61.42;30.58;;;7.80;99.90;;;7.90;80.66;102293.50;5056315;28;20064;-68
2021/11/16 10:22:49;;;;;;;68.25;31.95;;;7.70;99.90;;;8.17;79.77;102286.41;5056226;28;20049;-68
2021/11/16 10:25:23;;;;;;;65.95;30.13;;;7.80;99.90;;;8.29;79.91;102296.41;5055904;28;20045;-67
2021/11/16 10:27:55;;;;;;;66.82;30.42;;;8.00;99.90;;;8.27;79.55;102284.03;5056201;28;20548;-68
2021/11/16 10:30:27;;;;;;;65.90;32.20;;;8.00;99.90;;;8.33;79.57;102297.41;5056033;28;20478;-68
2021/11/16 10:33:11;;;;;;;71.03;32.78;;;8.10;99.90;;;8.20;79.75;102297.03;5055756;28;20064;-68
2021/11/16 10:35:43;;;;;;;67.35;32.13;;;8.10;99.90;;;8.32;79.93;102287.72;5055740;28;20037;-67
2021/11/16 10:38:16;;;;;;;65.70;30.08;;;8.20;99.90;;;8.43;79.61;102284.50;5055740;28;20040;-67